RJNH(METAR)
02/28 05:00
METAR RJNH 272000Z 08003KT 9999 FEW020 BKN045 05/03 Q1023 RMK 1CU020
6SC045 A3021=
戻る
トップページへ戻る
IMOC Co,.Ltd.